Time;durP1;ratioP1;P1;durP2;ratioP2;P2;SDS_P1;SDS_P2;PMS_P1;PMS_P2;Temp;Humidity;BMP_temperature;BMP_pressure;BME280_temperature;BME280_humidity;BME280_pressure;Samples;Min_cycle;Max_cycle;Signal;HPM_P1;HPM_P2
2022/01/05 00:02:05;;;;;;;4.32;1.88;;;;;;;7.17;100.00;96991.50;5023429;28;20029;-67
2022/01/05 00:04:31;;;;;;;1.90;1.45;;;;;;;7.17;100.00;96991.50;5023694;28;20229;-67
2022/01/05 00:06:56;;;;;;;4.70;1.83;;;;;;;7.16;100.00;96979.31;5023623;28;20212;-67
2022/01/05 00:09:22;;;;;;;2.95;1.77;;;;;;;7.07;100.00;96983.97;5020958;28;20022;-67
2022/01/05 00:11:47;;;;;;;6.50;1.92;;;;;;;7.06;100.00;96983.16;5004504;28;20225;-67
2022/01/05 00:14:13;;;;;;;5.22;1.83;;;;;;;7.09;100.00;96983.00;5004477;28;20026;-67
2022/01/05 00:16:38;;;;;;;1.63;1.20;;;;;;;7.07;100.00;96986.59;5020429;28;20028;-67
2022/01/05 00:19:03;;;;;;;3.67;1.70;;;;;;;7.04;100.00;96964.00;5018143;28;20068;-67
2022/01/05 00:21:29;;;;;;;3.92;2.00;;;;;;;7.10;100.00;96958.59;5023244;28;20025;-67
2022/01/05 00:23:54;;;;;;;3.60;2.17;;;;;;;7.09;100.00;96961.25;5023417;28;20029;-67
2022/01/05 00:26:20;;;;;;;4.10;1.90;;;;;;;7.22;100.00;96968.66;5022996;28;20041;-67
2022/01/05 00:28:45;;;;;;;5.30;2.40;;;;;;;7.19;100.00;96963.53;5004370;28;20037;-67
2022/01/05 00:31:11;;;;;;;5.22;2.53;;;;;;;7.28;100.00;96957.13;5004415;28;20030;-67
2022/01/05 00:33:36;;;;;;;4.03;2.75;;;;;;;7.33;100.00;96971.78;5004351;28;20026;-67
2022/01/05 00:36:02;;;;;;;5.18;2.80;;;;;;;7.20;100.00;96969.59;5005408;28;20025;-67
2022/01/05 00:38:27;;;;;;;3.25;2.03;;;;;;;7.17;100.00;96981.03;5004185;28;20038;-67
2022/01/05 00:40:52;;;;;;;7.18;2.45;;;;;;;7.20;100.00;96975.69;5004232;28;20022;-67
2022/01/05 00:43:18;;;;;;;8.13;2.35;;;;;;;7.16;100.00;96966.25;5004195;28;20316;-67
2022/01/05 00:45:43;;;;;;;4.32;2.55;;;;;;;7.09;100.00;96967.31;5004147;28;20050;-67
2022/01/05 00:48:09;;;;;;;3.65;1.90;;;;;;;7.15;100.00;96972.34;5006086;28;20218;-67
2022/01/05 00:50:34;;;;;;;4.38;2.17;;;;;;;7.11;100.00;96976.00;5023755;28;20022;-67
2022/01/05 00:53:01;;;;;;;5.80;2.13;;;;;;;7.11;100.00;96973.38;5023728;28;20045;-67
2022/01/05 00:55:28;;;;;;;2.90;1.90;;;;;;;7.18;100.00;96967.03;5023662;28;20018;-67
2022/01/05 00:57:53;;;;;;;2.83;1.75;;;;;;;7.16;100.00;96973.22;5006253;28;20018;-67
2022/01/05 01:00:19;;;;;;;2.80;1.27;;;;;;;7.14;100.00;96975.88;5023361;28;20033;-67
2022/01/05 01:02:44;;;;;;;5.38;1.80;;;;;;;7.18;100.00;96974.03;5026851;28;20045;-67
2022/01/05 01:05:10;;;;;;;2.45;1.52;;;;;;;7.32;100.00;96975.31;5026611;28;20021;-67
2022/01/05 01:07:35;;;;;;;2.47;1.65;;;;;;;7.41;100.00;96980.25;5015481;28;20085;-67
2022/01/05 01:10:00;;;;;;;5.55;2.10;;;;;;;7.23;99.08;96978.22;5007661;28;20321;-67
2022/01/05 01:12:26;;;;;;;3.30;1.80;;;;;;;7.14;100.00;96981.13;5007635;28;20022;-67
2022/01/05 01:14:51;;;;;;;4.18;1.80;;;;;;;7.02;100.00;96984.13;5007801;28;20376;-67
2022/01/05 01:17:17;;;;;;;8.07;2.03;;;;;;;7.03;100.00;96988.47;5023086;28;20209;-67
2022/01/05 01:19:42;;;;;;;2.90;1.88;;;;;;;7.14;100.00;96990.72;5023964;28;20034;-67
2022/01/05 01:22:08;;;;;;;2.50;1.70;;;;;;;7.14;99.56;96995.94;5007460;28;20046;-67
2022/01/05 01:24:33;;;;;;;6.78;1.77;;;;;;;7.19;99.46;97005.38;5022899;28;20271;-67
2022/01/05 01:26:58;;;;;;;4.10;1.48;;;;;;;7.15;98.39;97008.97;5026436;28;20036;-67
2022/01/05 01:29:24;;;;;;;4.55;1.83;;;;;;;7.09;99.23;97018.81;5012847;28;20025;-67
2022/01/05 01:31:50;;;;;;;3.88;1.60;;;;;;;7.05;99.52;97023.25;5007325;28;20022;-67
2022/01/05 01:34:16;;;;;;;2.97;1.50;;;;;;;7.04;99.72;97020.69;5007219;28;20029;-67
2022/01/05 01:36:41;;;;;;;6.45;1.60;;;;;;;7.04;99.87;97018.06;5021615;28;20024;-67
2022/01/05 01:39:06;;;;;;;4.07;1.83;;;;;;;7.07;100.00;97024.06;5024543;28;20089;-67
2022/01/05 01:41:32;;;;;;;4.70;1.50;;;;;;;6.99;100.00;97023.44;5024851;28;20272;-67
2022/01/05 01:43:57;;;;;;;5.20;1.25;;;;;;;7.01;100.00;97024.25;5026098;28;20412;-67
2022/01/05 01:46:23;;;;;;;2.70;1.42;;;;;;;7.00;100.00;97032.16;5014150;28;20033;-67
2022/01/05 01:48:48;;;;;;;3.97;2.00;;;;;;;7.07;100.00;97031.94;5006911;28;20060;-67
2022/01/05 01:51:14;;;;;;;8.90;2.10;;;;;;;6.99;100.00;97036.53;5006909;28;20022;-67
2022/01/05 01:53:40;;;;;;;7.95;1.63;;;;;;;6.95;99.97;97031.44;5006819;28;20029;-67
2022/01/05 01:56:06;;;;;;;3.70;2.25;;;;;;;6.93;100.00;97043.72;5007883;28;20077;-67
2022/01/05 01:58:34;;;;;;;1.70;1.10;;;;;;;7.02;100.00;97049.50;5014741;28;20029;-67
2022/01/05 02:00:59;;;;;;;6.30;1.58;;;;;;;6.94;99.12;97056.75;5006712;28;20029;-67
2022/01/05 02:03:25;;;;;;;4.45;1.30;;;;;;;7.07;100.00;97052.84;5007818;28;20085;-67
2022/01/05 02:05:50;;;;;;;3.17;1.35;;;;;;;6.98;98.43;97081.91;5020892;28;20034;-67
2022/01/05 02:08:16;;;;;;;1.92;1.10;;;;;;;7.02;98.63;97044.28;5025372;28;20069;-67
2022/01/05 02:10:43;;;;;;;2.65;1.55;;;;;;;6.92;98.09;97055.94;5025399;28;20210;-67
2022/01/05 02:13:08;;;;;;;2.03;1.35;;;;;;;6.94;98.66;97041.06;5025814;28;20245;-67
2022/01/05 02:15:34;;;;;;;1.77;1.33;;;;;;;6.93;98.79;97044.56;5013195;28;20014;-67
2022/01/05 02:20:30;;;;;;;1.50;1.17;;;;;;;6.86;97.81;97039.59;5025467;28;20045;-67
2022/01/05 02:22:56;;;;;;;1.50;0.98;;;;;;;6.93;98.11;97055.00;5025356;28;20024;-67
2022/01/05 02:25:22;;;;;;;1.90;1.25;;;;;;;6.88;97.15;97062.16;5014800;28;20113;-67
2022/01/05 02:27:53;;;;;;;1.33;0.88;;;;;;;6.75;97.46;97063.44;5006226;28;20187;-67
2022/01/05 02:30:22;;;;;;;2.63;1.17;;;;;;;6.62;99.04;97080.38;5006176;28;20014;-67
2022/01/05 02:32:48;;;;;;;1.10;0.80;;;;;;;6.74;97.54;97077.38;5006192;28;20049;-67
2022/01/05 02:35:13;;;;;;;1.63;0.80;;;;;;;6.59;98.06;97096.13;5014009;28;20021;-67
2022/01/05 02:37:45;;;;;;;3.88;1.10;;;;;;;6.50;97.14;97107.72;5006010;28;20022;-67
2022/01/05 02:40:13;;;;;;;6.88;1.15;;;;;;;6.55;98.08;97120.63;5005869;28;20090;-67
2022/01/05 02:42:39;;;;;;;1.17;0.50;;;;;;;6.28;95.67;97126.59;5014016;28;20101;-67
2022/01/05 02:45:05;;;;;;;0.20;0.20;;;;;;;6.11;95.21;97136.66;5015801;28;20025;-67
2022/01/05 02:47:31;;;;;;;3.70;0.40;;;;;;;6.10;94.59;97133.16;5025416;28;20026;-67
2022/01/05 02:49:58;;;;;;;0.80;0.40;;;;;;;6.05;93.10;97150.69;5025440;28;20194;-67
2022/01/05 02:52:23;;;;;;;1.83;0.50;;;;;;;6.21;93.60;97159.00;5025609;28;20018;-67
2022/01/05 02:54:49;;;;;;;0.22;0.22;;;;;;;5.89;92.68;97167.63;5017526;28;20299;-67
2022/01/05 02:57:14;;;;;;;0.40;0.40;;;;;;;5.63;92.60;97167.38;5005728;28;20321;-67
2022/01/05 02:59:39;;;;;;;0.22;0.22;;;;;;;5.71;91.94;97180.25;5005818;28;20301;-67
2022/01/05 03:02:05;;;;;;;0.38;0.32;;;;;;;5.53;92.62;97185.88;5020420;28;20049;-67
2022/01/05 03:04:31;;;;;;;0.85;0.40;;;;;;;5.52;93.75;97189.38;5014640;28;20030;-67
2022/01/05 03:06:56;;;;;;;0.30;0.30;;;;;;;5.38;92.82;97199.28;5005488;28;20046;-67
2022/01/05 03:09:22;;;;;;;1.00;0.30;;;;;;;5.30;93.30;97214.22;5005493;28;20090;-67
2022/01/05 03:11:47;;;;;;;0.73;0.50;;;;;;;5.48;93.36;97213.84;5005633;28;20241;-67
2022/01/05 03:14:12;;;;;;;0.65;0.30;;;;;;;5.25;92.84;97231.75;5012844;28;20213;-67
2022/01/05 03:16:38;;;;;;;0.30;0.30;;;;;;;5.43;93.06;97226.13;5005349;28;20075;-67
2022/01/05 03:19:03;;;;;;;1.45;0.20;;;;;;;5.12;92.31;97236.31;5005268;28;20345;-67
2022/01/05 03:21:29;;;;;;;4.20;0.30;;;;;;;5.06;92.03;97246.03;5005244;28;20030;-67
2022/01/05 03:23:54;;;;;;;0.90;0.40;;;;;;;5.19;93.63;97242.28;5007997;28;20017;-67
2022/01/05 03:26:20;;;;;;;0.68;0.47;;;;;;;5.00;93.16;97248.75;5023815;28;20050;-67
2022/01/05 03:28:45;;;;;;;0.47;0.30;;;;;;;5.10;93.71;97255.50;5018793;28;20356;-67
2022/01/05 03:31:10;;;;;;;0.30;0.30;;;;;;;4.98;93.38;97266.19;5005048;28;20085;-67
2022/01/05 03:33:36;;;;;;;2.67;0.22;;;;;;;4.85;93.23;97280.31;5017390;28;20018;-67
2022/01/05 03:36:01;;;;;;;0.38;0.28;;;;;;;4.89;93.62;97289.81;5005010;28;20029;-67
2022/01/05 03:38:28;;;;;;;3.00;0.57;;;;;;;4.86;93.31;97311.59;5004891;28;20109;-67
2022/01/05 03:40:54;;;;;;;1.15;0.43;;;;;;;4.90;93.33;97297.59;5006442;28;20022;-67
2022/01/05 03:43:20;;;;;;;0.43;0.30;;;;;;;4.87;92.42;97312.44;5018943;28;20421;-67
2022/01/05 03:45:45;;;;;;;1.08;0.25;;;;;;;4.79;92.55;97322.13;5023694;28;20026;-67
2022/01/05 03:48:13;;;;;;;0.30;0.30;;;;;;;4.80;93.75;97331.66;5023942;28;20026;-67
2022/01/05 03:50:39;;;;;;;0.38;0.30;;;;;;;4.75;93.29;97339.59;5023902;28;20020;-67
2022/01/05 03:53:06;;;;;;;1.25;0.50;;;;;;;4.71;92.92;97352.69;5008552;28;20045;-67
2022/01/05 03:55:33;;;;;;;4.65;0.73;;;;;;;4.66;92.95;97349.28;5023812;28;20029;-67
2022/01/05 03:57:59;;;;;;;0.30;0.30;;;;;;;4.73;92.79;97357.00;5023511;28;20025;-67
2022/01/05 04:00:27;;;;;;;0.40;0.40;;;;;;;4.72;92.19;97370.03;5010856;28;20018;-67
2022/01/05 04:02:53;;;;;;;2.72;0.50;;;;;;;4.73;92.81;97376.97;5019003;28;20033;-67
2022/01/05 04:05:18;;;;;;;0.82;0.47;;;;;;;4.65;92.77;97374.50;5004610;28;20085;-67
2022/01/05 04:07:44;;;;;;;0.50;0.40;;;;;;;4.74;93.36;97378.72;5004668;28;20294;-67
2022/01/05 04:10:09;;;;;;;4.43;0.85;;;;;;;4.70;93.64;97387.44;5006870;28;20034;-67
2022/01/05 04:12:34;;;;;;;0.43;0.43;;;;;;;4.64;93.61;97393.63;5023604;28;20014;-67
2022/01/05 04:15:00;;;;;;;0.82;0.70;;;;;;;4.66;94.22;97406.63;5011117;28;20022;-67
2022/01/05 04:17:25;;;;;;;2.33;0.73;;;;;;;4.58;94.76;97413.72;5022960;28;20029;-67
2022/01/05 04:19:51;;;;;;;2.67;1.40;;;;;;;4.56;95.26;97420.69;5004354;28;20033;-67
2022/01/05 04:22:17;;;;;;;1.85;0.82;;;;;;;4.56;95.91;97425.91;5004442;28;20090;-67
2022/01/05 04:24:42;;;;;;;2.05;1.13;;;;;;;4.54;94.94;97428.53;5019384;28;20022;-67
2022/01/05 04:27:08;;;;;;;3.03;1.15;;;;;;;4.47;94.74;97448.56;5022061;28;20018;-67
2022/01/05 04:29:33;;;;;;;1.42;0.80;;;;;;;4.39;95.47;97446.97;5020798;28;20044;-67
2022/01/05 04:32:00;;;;;;;1.10;0.90;;;;;;;4.30;95.37;97458.38;5004353;28;20018;-67
2022/01/05 04:34:26;;;;;;;1.52;1.00;;;;;;;4.34;94.76;97473.06;5018361;28;20021;-67
2022/01/05 04:36:51;;;;;;;6.55;1.50;;;;;;;4.10;93.93;97473.41;5026690;28;20022;-67
2022/01/05 04:39:16;;;;;;;3.10;0.75;;;;;;;4.04;92.95;97463.06;5027246;28;20045;-67
2022/01/05 04:41:42;;;;;;;2.45;1.00;;;;;;;4.03;94.77;97471.78;5027536;28;20018;-67
2022/01/05 04:44:08;;;;;;;4.97;1.00;;;;;;;4.11;93.61;97469.03;5027254;28;20054;-67
2022/01/05 04:46:34;;;;;;;1.83;1.20;;;;;;;4.08;93.21;97474.28;5027308;28;20018;-67
2022/01/05 04:48:59;;;;;;;6.38;1.45;;;;;;;4.03;92.89;97479.59;5021176;28;20019;-67
2022/01/05 04:51:24;;;;;;;2.60;1.52;;;;;;;3.99;92.92;97490.06;5008298;28;20093;-67
2022/01/05 04:53:51;;;;;;;4.93;1.27;;;;;;;3.99;93.78;97516.06;5025739;28;20018;-67
2022/01/05 04:56:16;;;;;;;3.33;1.35;;;;;;;4.10;93.55;97520.28;5027065;28;20025;-67
2022/01/05 04:58:42;;;;;;;6.03;1.45;;;;;;;3.94;92.27;97517.84;5017922;28;20052;-67
2022/01/05 05:01:08;;;;;;;8.13;1.50;;;;;;;3.91;92.09;97517.91;5007845;28;20022;-67
2022/01/05 05:03:33;;;;;;;4.55;1.75;;;;;;;3.79;93.00;97518.88;5022561;28;20037;-67
2022/01/05 05:05:58;;;;;;;3.22;1.38;;;;;;;3.74;93.91;97525.88;5026326;28;20328;-67
2022/01/05 05:08:24;;;;;;;1.73;1.13;;;;;;;3.60;94.39;97532.97;5025461;28;20081;-67
2022/01/05 05:10:49;;;;;;;4.53;1.17;;;;;;;3.49;93.98;97520.94;5026735;28;20017;-67
2022/01/05 05:13:15;;;;;;;5.45;1.40;;;;;;;3.45;93.69;97530.50;5027240;28;20092;-67
2022/01/05 05:15:40;;;;;;;8.18;1.60;;;;;;;3.38;93.88;97535.75;5027161;28;20102;-67
2022/01/05 05:18:06;;;;;;;2.28;1.50;;;;;;;3.29;93.85;97534.09;5027024;28;20064;-67
2022/01/05 05:20:32;;;;;;;7.78;1.55;;;;;;;3.17;94.83;97536.84;5027067;28;20248;-67
2022/01/05 05:22:59;;;;;;;13.05;2.83;;;;;;;3.10;95.34;97542.94;5027281;28;20022;-67
2022/01/05 05:25:24;;;;;;;9.63;2.05;;;;;;;3.13;95.14;97555.06;5025202;28;20048;-67
2022/01/05 05:27:50;;;;;;;8.32;1.55;;;;;;;3.07;94.40;97544.72;5020640;28;20023;-67
2022/01/05 05:30:15;;;;;;;11.80;1.73;;;;;;;3.12;94.90;97549.00;5006300;28;20022;-67
2022/01/05 05:32:41;;;;;;;4.78;2.25;;;;;;;3.13;95.26;97540.31;5006270;28;20030;-67
2022/01/05 05:35:06;;;;;;;6.65;2.33;;;;;;;3.10;95.20;97545.53;5009340;28;20045;-67
2022/01/05 05:37:32;;;;;;;6.30;1.80;;;;;;;3.12;95.56;97555.91;5023429;28;20029;-67
2022/01/05 05:39:58;;;;;;;4.82;1.70;;;;;;;3.16;95.73;97561.09;5026637;28;20329;-67
2022/01/05 05:42:25;;;;;;;4.97;1.67;;;;;;;3.18;95.04;97571.47;5026895;28;20041;-67
2022/01/05 05:44:51;;;;;;;10.95;2.13;;;;;;;3.17;95.28;97578.44;5026609;28;20061;-67
2022/01/05 05:47:17;;;;;;;6.32;2.33;;;;;;;3.18;94.97;97585.34;5026100;28;20040;-67
2022/01/05 05:49:43;;;;;;;6.93;1.95;;;;;;;3.13;94.56;97575.88;5026518;28;20024;-67
2022/01/05 05:52:09;;;;;;;7.28;2.10;;;;;;;3.17;94.51;97585.34;5026734;28;20029;-67
2022/01/05 05:54:34;;;;;;;2.47;1.35;;;;;;;3.09;95.65;97594.94;5026456;28;20229;-67
2022/01/05 05:57:00;;;;;;;7.18;2.13;;;;;;;3.11;95.04;97599.25;5026402;28;20030;-67
2022/01/05 05:59:25;;;;;;;8.77;2.50;;;;;;;3.13;95.08;97587.09;5026318;28;20341;-67
2022/01/05 06:01:50;;;;;;;8.38;1.52;;;;;;;3.16;94.64;97584.47;5026299;28;20026;-67
2022/01/05 06:04:16;;;;;;;3.95;1.70;;;;;;;3.15;95.06;97590.56;5026236;28;20030;-67
2022/01/05 06:06:41;;;;;;;4.80;1.42;;;;;;;3.22;93.88;97605.25;5026482;28;20085;-67
2022/01/05 06:09:06;;;;;;;11.90;2.45;;;;;;;3.17;93.35;97607.03;5026138;28;20068;-67
2022/01/05 06:11:32;;;;;;;6.18;1.98;;;;;;;3.14;92.90;97599.25;5026138;28;20032;-67
2022/01/05 06:13:57;;;;;;;4.05;1.70;;;;;;;3.02;91.86;97608.84;5026051;28;20072;-67
2022/01/05 06:16:24;;;;;;;5.30;1.50;;;;;;;2.82;92.09;97624.56;5026058;28;20037;-67
2022/01/05 06:18:49;;;;;;;8.10;1.58;;;;;;;2.87;92.33;97629.72;5025884;28;20364;-67
2022/01/05 06:21:14;;;;;;;9.32;1.83;;;;;;;2.77;92.28;97628.03;5025872;28;20021;-67
2022/01/05 06:23:40;;;;;;;5.47;1.42;;;;;;;2.73;91.98;97640.19;5025859;28;20026;-67
2022/01/05 06:26:05;;;;;;;8.82;2.53;;;;;;;2.86;92.13;97643.59;5025675;28;20065;-67
2022/01/05 06:28:31;;;;;;;6.63;2.05;;;;;;;2.79;91.03;97642.78;5025814;28;20029;-67
2022/01/05 06:30:56;;;;;;;4.88;1.33;;;;;;;2.72;90.71;97655.78;5025778;28;20048;-67
2022/01/05 06:33:22;;;;;;;7.07;1.45;;;;;;;2.64;91.06;97652.34;5025732;28;20026;-67
2022/01/05 06:35:47;;;;;;;6.50;2.05;;;;;;;2.61;92.05;97658.44;5023997;28;20026;-67
2022/01/05 06:38:12;;;;;;;7.18;1.95;;;;;;;2.64;91.15;97658.41;5025554;28;20026;-67
2022/01/05 06:40:38;;;;;;;5.20;2.15;;;;;;;2.65;90.53;97665.31;5025686;28;20092;-67
2022/01/05 06:43:03;;;;;;;2.08;1.38;;;;;;;2.76;90.75;97667.88;5025554;28;20029;-67
2022/01/05 06:45:29;;;;;;;2.65;1.48;;;;;;;2.80;90.84;97674.78;5025427;28;20040;-67
2022/01/05 06:47:55;;;;;;;4.45;1.63;;;;;;;2.86;90.77;97675.63;5025709;28;20022;-67
2022/01/05 06:50:20;;;;;;;4.05;1.52;;;;;;;2.88;90.04;97673.03;5025388;28;20072;-67
2022/01/05 06:52:46;;;;;;;3.95;1.90;;;;;;;2.84;90.24;97682.56;5025341;28;20028;-67
2022/01/05 06:55:11;;;;;;;17.63;2.20;;;;;;;2.85;89.70;97679.09;5025419;28;20428;-67
2022/01/05 06:57:40;;;;;;;14.02;1.50;;;;;;;2.89;88.68;97686.03;5024525;28;20028;-67
2022/01/05 07:00:08;;;;;;;5.80;1.90;;;;;;;2.89;88.49;97690.34;5025368;28;20047;-67
2022/01/05 07:02:33;;;;;;;8.93;1.70;;;;;;;2.91;89.16;97686.84;5025133;28;20325;-67
2022/01/05 07:04:58;;;;;;;9.90;1.65;;;;;;;2.86;88.38;97693.81;5025142;28;20047;-67
2022/01/05 07:07:24;;;;;;;6.80;1.88;;;;;;;2.88;89.02;97699.88;5025095;28;20026;-67
2022/01/05 07:09:49;;;;;;;17.52;2.42;;;;;;;2.86;87.79;97701.63;5025074;28;20387;-67
2022/01/05 07:12:15;;;;;;;13.68;1.90;;;;;;;2.81;88.77;97707.72;5025049;28;20017;-67
2022/01/05 07:14:40;;;;;;;6.28;1.38;;;;;;;2.85;89.40;97710.25;5024991;28;20033;-67
2022/01/05 07:17:06;;;;;;;6.22;1.65;;;;;;;2.81;89.53;97718.09;5024907;28;20021;-67
2022/01/05 07:19:31;;;;;;;12.10;1.95;;;;;;;2.68;89.43;97722.47;5024801;28;20096;-67
2022/01/05 07:21:57;;;;;;;3.70;1.58;;;;;;;2.55;88.92;97725.97;5024869;28;20017;-67
2022/01/05 07:24:22;;;;;;;4.03;1.55;;;;;;;2.50;89.90;97735.50;5024751;28;20021;-67
2022/01/05 07:26:48;;;;;;;5.40;1.35;;;;;;;2.58;90.21;97736.34;5024636;28;20112;-67
2022/01/05 07:29:15;;;;;;;12.15;1.73;;;;;;;2.55;89.92;97733.75;5024981;28;20013;-67
2022/01/05 07:31:42;;;;;;;14.30;2.47;;;;;;;2.48;89.71;97745.03;5024652;28;20021;-67
2022/01/05 07:34:07;;;;;;;9.73;1.65;;;;;;;2.52;90.73;97749.34;5024628;28;20048;-67
2022/01/05 07:36:33;;;;;;;6.40;1.60;;;;;;;2.31;90.82;97756.31;5024621;28;20030;-67
2022/01/05 07:38:59;;;;;;;21.35;2.25;;;;;;;2.30;90.72;97760.63;5024461;28;20022;-67
2022/01/05 07:41:25;;;;;;;15.77;2.38;;;;;;;2.21;91.10;97771.88;5024451;28;20025;-67
2022/01/05 07:43:51;;;;;;;12.23;2.58;;;;;;;2.35;92.14;97773.59;5024529;28;20029;-67
2022/01/05 07:46:17;;;;;;;9.48;1.58;;;;;;;2.26;90.55;97777.09;5024416;28;20018;-67
2022/01/05 07:48:42;;;;;;;9.13;2.20;;;;;;;2.22;90.39;97773.63;5024463;28;20067;-67
2022/01/05 07:51:08;;;;;;;4.93;2.08;;;;;;;2.18;91.07;97771.88;5024442;28;20053;-67
2022/01/05 07:53:33;;;;;;;8.70;1.80;;;;;;;2.29;91.47;97779.69;5022347;28;20018;-67
2022/01/05 07:55:58;;;;;;;7.60;1.88;;;;;;;2.22;90.73;97777.97;5023381;28;20025;-67
2022/01/05 07:58:26;;;;;;;10.40;1.92;;;;;;;2.25;90.37;97783.16;5023249;28;20021;-67
2022/01/05 08:00:51;;;;;;;12.52;1.83;;;;;;;2.23;89.91;97790.06;5018644;28;20349;-67
2022/01/05 08:03:17;;;;;;;15.15;2.28;;;;;;;2.22;90.24;97793.53;5011527;28;20022;-67
2022/01/05 08:05:42;;;;;;;4.25;1.45;;;;;;;2.20;90.18;97790.06;5011485;28;20233;-67
2022/01/05 08:08:07;;;;;;;15.80;2.28;;;;;;;2.17;89.81;97800.44;5013723;28;20136;-67
2022/01/05 08:10:33;;;;;;;12.93;1.83;;;;;;;2.09;89.43;97802.19;5012857;28;20025;-67
2022/01/05 08:12:58;;;;;;;12.05;2.03;;;;;;;2.09;90.18;97802.19;5012236;28;20321;-67
2022/01/05 08:15:24;;;;;;;17.25;2.75;;;;;;;2.06;90.24;97802.19;5017080;28;20176;-67
2022/01/05 08:17:50;;;;;;;5.18;2.22;;;;;;;2.24;91.25;97812.56;5012753;28;20024;-67
2022/01/05 08:20:16;;;;;;;7.57;2.00;;;;;;;2.21;90.36;97817.75;5019648;28;20045;-67
2022/01/05 08:22:43;;;;;;;6.68;1.65;;;;;;;2.16;90.56;97815.13;5023085;28;20026;-67
2022/01/05 08:25:11;;;;;;;8.25;2.40;;;;;;;2.17;90.83;97836.78;5023472;28;20041;-68
2022/01/05 08:27:45;;;;;;;11.25;2.03;;;;;;;2.17;91.44;97836.78;5023952;28;20092;-68
2022/01/05 08:30:16;;;;;;;9.35;2.42;;;;;;;2.27;91.02;97838.50;5023975;28;20064;-68
2022/01/05 08:32:42;;;;;;;13.88;2.38;;;;;;;2.54;89.95;97848.91;5023979;28;20037;-68
2022/01/05 08:35:10;;;;;;;11.07;2.58;;;;;;;3.14;87.63;97848.81;5024033;28;20301;-68
2022/01/05 08:37:36;;;;;;;6.43;1.92;;;;;;;3.79;85.50;97856.31;5024155;28;20360;-68
2022/01/05 08:40:02;;;;;;;12.98;2.67;;;;;;;4.19;83.89;97858.69;5023830;28;20029;-68
2022/01/05 08:42:28;;;;;;;12.60;2.63;;;;;;;4.49;81.35;97853.25;5023872;28;20032;-68
2022/01/05 08:44:53;;;;;;;6.72;1.67;;;;;;;4.93;79.99;97859.84;5023924;28;20026;-67
2022/01/05 08:47:19;;;;;;;12.90;2.42;;;;;;;5.14;78.92;97859.59;5023822;28;20026;-68
2022/01/05 08:49:44;;;;;;;7.93;1.95;;;;;;;5.35;77.66;97864.59;5023791;28;20068;-68
2022/01/05 08:52:10;;;;;;;23.25;2.42;;;;;;;5.46;77.17;97862.72;5023783;28;20076;-68
2022/01/05 08:54:35;;;;;;;6.53;2.00;;;;;;;5.40;76.81;97873.22;5023748;28;20044;-68
2022/01/05 08:57:00;;;;;;;6.28;2.55;;;;;;;5.44;78.68;97881.00;5023748;28;20053;-68
2022/01/05 08:59:26;;;;;;;16.17;2.63;;;;;;;4.80;78.78;97884.25;5023637;28;20377;-68
2022/01/05 09:01:51;;;;;;;10.25;2.92;;;;;;;4.47;80.85;97881.03;5023685;28;20030;-68
2022/01/05 09:04:17;;;;;;;16.95;3.47;;;;;;;4.13;81.73;97892.59;5023632;28;20030;-68
2022/01/05 09:06:43;;;;;;;7.60;2.05;;;;;;;4.00;82.72;97896.13;5023650;28;20084;-68
2022/01/05 09:09:08;;;;;;;13.10;3.13;;;;;;;3.92;83.45;97899.63;5023630;28;20048;-68
2022/01/05 09:11:34;;;;;;;13.95;3.17;;;;;;;3.73;84.60;97897.97;5023594;28;20030;-68
2022/01/05 09:14:00;;;;;;;14.07;2.78;;;;;;;3.50;86.28;97899.81;5023563;28;20049;-68
2022/01/05 09:16:25;;;;;;;23.85;3.63;;;;;;;3.44;85.92;97915.44;5023538;28;20033;-68
2022/01/05 09:18:50;;;;;;;20.45;2.55;;;;;;;3.28;87.59;97914.63;5023478;28;20030;-68
2022/01/05 09:21:16;;;;;;;14.73;2.78;;;;;;;3.30;86.77;97917.22;5024587;28;20379;-68
2022/01/05 09:23:43;;;;;;;20.20;2.65;;;;;;;3.26;87.23;97920.72;5027037;28;20140;-68
2022/01/05 09:26:09;;;;;;;10.07;2.47;;;;;;;3.22;87.93;97934.56;5026923;28;20053;-68
2022/01/05 09:28:40;;;;;;;13.00;2.78;;;;;;;3.13;88.43;97932.84;5026930;28;20074;-68
2022/01/05 09:31:06;;;;;;;20.38;3.30;;;;;;;3.23;87.86;97942.34;5027205;28;20343;-68
2022/01/05 09:33:31;;;;;;;17.83;2.80;;;;;;;3.24;87.84;97941.50;5026894;28;20089;-68
2022/01/05 09:36:05;;;;;;;20.15;3.70;;;;;;;3.25;87.60;97948.44;5026831;28;20026;-67
2022/01/05 09:44:05;;;;;;;13.27;2.50;;;;;;;3.31;86.75;97953.63;5026692;28;20025;-68
2022/01/05 09:46:42;;;;;;;10.82;2.03;;;;;;;3.44;84.88;97952.72;5026703;28;20037;-68
2022/01/05 09:49:10;;;;;;;7.55;1.40;;;;;;;3.43;84.36;97951.00;5026618;28;20025;-68
2022/01/05 09:51:41;;;;;;;10.48;1.67;;;;;;;3.48;84.52;97954.44;5026490;28;20021;-68
2022/01/05 09:54:08;;;;;;;9.18;1.92;;;;;;;3.63;83.97;97949.22;5026518;28;20026;-68
2022/01/05 09:56:34;;;;;;;3.80;1.70;;;;;;;3.50;83.61;97944.91;5026443;28;20025;-68
2022/01/05 09:59:03;;;;;;;3.53;1.23;;;;;;;3.52;82.75;97956.19;5026310;28;20057;-68
2022/01/05 10:01:30;;;;;;;4.82;1.73;;;;;;;3.43;83.46;97956.22;5026332;28;20280;-68
2022/01/05 10:03:57;;;;;;;10.25;1.63;;;;;;;3.63;85.75;97954.41;5026290;28;20317;-68
2022/01/05 10:06:22;;;;;;;4.47;1.58;;;;;;;3.58;84.46;97958.75;5026261;28;20032;-68
2022/01/05 10:08:48;;;;;;;7.72;1.52;;;;;;;3.44;83.32;97955.34;5026205;28;20217;-68
2022/01/05 10:11:13;;;;;;;7.53;1.35;;;;;;;3.48;82.94;97962.25;5026166;28;20076;-68
2022/01/05 10:13:38;;;;;;;8.55;1.33;;;;;;;3.36;83.38;97970.06;5026103;28;20022;-68
2022/01/05 10:16:05;;;;;;;11.00;2.22;;;;;;;3.34;83.50;97965.75;5026112;28;20030;-68
2022/01/05 10:18:42;;;;;;;7.90;1.67;;;;;;;3.24;83.67;97980.53;5024842;28;20022;-68
2022/01/05 10:21:08;;;;;;;15.35;1.90;;;;;;;3.26;84.51;97975.31;5026242;28;20048;-68
2022/01/05 10:23:45;;;;;;;12.98;1.73;;;;;;;3.33;84.65;97980.50;5025884;28;20320;-68
2022/01/05 10:26:26;;;;;;;10.85;1.88;;;;;;;3.40;83.02;97986.56;5025717;28;20037;-68
2022/01/05 10:28:59;;;;;;;9.75;1.67;;;;;;;3.32;82.83;97983.97;5025909;28;20026;-68
2022/01/05 10:31:39;;;;;;;5.28;1.48;;;;;;;3.42;84.63;97998.69;5025797;28;20162;-68
2022/01/05 10:34:18;;;;;;;9.77;1.48;;;;;;;3.50;84.64;98009.94;5025703;28;20021;-68
2022/01/05 10:37:05;;;;;;;8.10;1.73;;;;;;;3.33;82.58;98008.25;5025964;28;20040;-68
2022/01/05 10:39:39;;;;;;;9.60;1.50;;;;;;;3.32;82.03;98015.16;5025528;28;20273;-68
2022/01/05 10:42:05;;;;;;;22.98;2.60;;;;;;;3.19;81.63;98009.97;5025632;28;20021;-68
2022/01/05 10:44:31;;;;;;;8.98;2.10;;;;;;;3.25;82.97;98016.03;5025799;28;20026;-68
2022/01/05 10:46:58;;;;;;;11.48;2.10;;;;;;;3.15;81.75;98022.13;5025759;28;20209;-68
2022/01/05 10:49:34;;;;;;;4.82;0.95;;;;;;;3.44;83.87;98022.97;5025455;28;20024;-68
2022/01/05 10:52:17;;;;;;;19.38;1.77;;;;;;;3.36;82.54;98029.88;5025458;28;20053;-68
2022/01/05 10:54:43;;;;;;;11.95;1.35;;;;;;;3.47;81.73;98035.09;5025388;28;20026;-68
2022/01/05 10:57:11;;;;;;;10.02;1.30;;;;;;;3.57;81.94;98027.28;5025322;28;20067;-68
2022/01/05 10:59:45;;;;;;;23.17;2.22;;;;;;;3.42;80.34;98029.88;5025422;28;20029;-68
2022/01/05 11:02:34;;;;;;;13.40;1.95;;;;;;;3.38;81.84;98030.78;5025281;28;20026;-68
2022/01/05 11:05:09;;;;;;;6.97;1.35;;;;;;;3.49;81.74;98021.22;5025172;28;20028;-68
2022/01/05 11:07:40;;;;;;;8.65;2.22;;;;;;;3.62;80.98;98020.34;5016131;28;20032;-68
2022/01/05 11:10:09;;;;;;;14.30;2.42;;;;;;;3.63;80.12;98027.28;5014679;28;20080;-68
2022/01/05 11:12:40;;;;;;;10.50;1.70;;;;;;;3.80;80.16;98020.28;5015802;28;20032;-68
2022/01/05 11:15:25;;;;;;;9.00;1.63;;;;;;;3.95;80.28;98017.63;5013679;28;20049;-68
2022/01/05 11:18:19;;;;;;;7.78;1.27;;;;;;;4.14;80.04;98027.13;5016578;28;20018;-68
2022/01/05 11:20:51;;;;;;;8.45;1.55;;;;;;;4.25;79.35;98027.06;5014801;28;20393;-68
2022/01/05 11:23:27;;;;;;;4.28;1.60;;;;;;;4.46;78.02;98038.25;5004254;28;20090;-68
2022/01/05 11:25:56;;;;;;;6.93;2.15;;;;;;;4.40;77.65;98038.28;5014438;28;20037;-68
2022/01/05 11:28:24;;;;;;;3.05;1.17;;;;;;;4.42;77.09;98035.66;5023442;28;20026;-68
2022/01/05 11:30:52;;;;;;;18.23;2.67;;;;;;;4.35;79.15;98045.28;5014738;28;20233;-68
2022/01/05 11:33:19;;;;;;;10.70;1.67;;;;;;;4.34;78.43;98046.13;5016078;28;20317;-68
2022/01/05 11:35:44;;;;;;;11.20;2.10;;;;;;;4.31;79.35;98045.28;5023717;28;20085;-68
2022/01/05 11:38:11;;;;;;;4.28;1.55;;;;;;;4.23;79.09;98042.72;5023950;28;20037;-68
2022/01/05 11:40:39;;;;;;;15.00;1.85;;;;;;;4.26;80.00;98041.81;5023152;28;20029;-68
2022/01/05 11:43:08;;;;;;;3.47;1.20;;;;;;;4.22;79.34;98035.78;5023618;28;20094;-68
2022/01/05 11:45:37;;;;;;;6.35;1.33;;;;;;;4.20;78.05;98045.31;5023124;28;20018;-68